createdAt,value
2019-05-05T00:02:31.905Z,99.20
2019-05-05T00:05:09.224Z,99.30
2019-05-05T00:07:59.332Z,99.10
2019-05-05T00:10:34.785Z,99.10
2019-05-05T00:13:06.239Z,99.10
2019-05-05T00:15:49.137Z,99.00
2019-05-05T00:18:20.486Z,99.00
2019-05-05T00:20:50.144Z,99.20
2019-05-05T00:23:20.125Z,99.00
2019-05-05T00:25:50.917Z,99.00
2019-05-05T00:28:20.737Z,98.80
2019-05-05T00:30:50.632Z,98.90
2019-05-05T00:33:20.297Z,98.90
2019-05-05T00:35:50.068Z,98.90
2019-05-05T00:38:20.879Z,98.70
2019-05-05T00:40:50.556Z,98.70
2019-05-05T00:43:20.260Z,98.70
2019-05-05T00:45:51.619Z,98.50
2019-05-05T00:48:28.934Z,98.30
2019-05-05T00:50:58.635Z,98.20
2019-05-05T00:53:28.406Z,98.20
2019-05-05T00:55:58.090Z,98.20
2019-05-05T00:58:29.461Z,98.30
2019-05-05T01:01:17.237Z,98.20
2019-05-05T01:03:46.981Z,98.20
2019-05-05T01:06:21.408Z,98.30
2019-05-05T01:08:51.098Z,98.50
2019-05-05T01:11:21.237Z,98.60
2019-05-05T01:13:50.920Z,98.70
2019-05-05T01:16:20.684Z,98.80
2019-05-05T01:18:50.318Z,98.80
2019-05-05T01:21:19.987Z,98.60
2019-05-05T01:23:49.770Z,98.60
2019-05-05T01:26:19.544Z,98.60
2019-05-05T01:28:49.387Z,98.50
2019-05-05T01:31:20.248Z,98.30
2019-05-05T01:33:54.400Z,98.30
2019-05-05T01:36:24.298Z,98.30
2019-05-05T01:38:55.610Z,98.50
2019-05-05T01:41:35.971Z,98.30
2019-05-05T01:44:05.690Z,98.30
2019-05-05T01:46:35.511Z,98.30
2019-05-05T01:49:05.528Z,98.50
2019-05-05T01:51:35.689Z,98.70
2019-05-05T01:54:05.839Z,98.80
2019-05-05T01:56:35.579Z,99.00
2019-05-05T01:59:05.464Z,99.00
2019-05-05T02:01:35.371Z,99.00
2019-05-05T02:04:05.630Z,99.00
2019-05-05T02:06:35.586Z,99.40
2019-05-05T02:09:06.739Z,99.60
2019-05-05T02:11:37.993Z,99.60
2019-05-05T02:14:08.737Z,99.80
2019-05-05T02:16:38.436Z,99.80
2019-05-05T02:19:08.130Z,99.70
2019-05-05T02:21:37.884Z,99.80
2019-05-05T02:24:07.797Z,99.90
2019-05-05T02:26:37.541Z,99.90
2019-05-05T02:29:20.775Z,99.90
2019-05-05T02:32:08.418Z,99.90
2019-05-05T02:34:39.769Z,99.90
2019-05-05T02:37:09.530Z,99.90
2019-05-05T02:39:45.865Z,99.90
2019-05-05T02:42:14.457Z,99.90
2019-05-05T02:44:45.601Z,99.90
2019-05-05T02:47:18.742Z,99.90
2019-05-05T02:49:49.133Z,99.90
2019-05-05T02:52:20.514Z,99.90
2019-05-05T02:54:53.650Z,99.90
2019-05-05T02:57:24.069Z,99.90
2019-05-05T02:59:55.440Z,99.90
2019-05-05T03:02:27.952Z,99.90
2019-05-05T03:04:57.798Z,99.90
2019-05-05T03:07:28.794Z,99.90
2019-05-05T03:10:00.362Z,99.90
2019-05-05T03:12:34.624Z,99.90
2019-05-05T03:15:05.236Z,99.90
2019-05-05T03:17:35.041Z,99.90
2019-05-05T03:20:07.737Z,99.90
2019-05-05T03:22:37.475Z,99.90
2019-05-05T03:25:07.497Z,99.90
2019-05-05T03:27:37.808Z,99.90
2019-05-05T03:30:09.856Z,99.90
2019-05-05T03:32:39.599Z,99.90
2019-05-05T03:35:09.572Z,99.90
2019-05-05T03:37:39.550Z,99.90
2019-05-05T03:40:10.955Z,99.90
2019-05-05T03:42:46.422Z,99.90
2019-05-05T03:45:17.821Z,99.90
2019-05-05T03:47:47.608Z,99.90
2019-05-05T03:50:17.343Z,99.90
2019-05-05T03:52:47.154Z,99.90
2019-05-05T03:55:17.940Z,99.80
2019-05-05T03:57:48.094Z,99.80
2019-05-05T04:00:20.810Z,99.80
2019-05-05T04:02:55.163Z,99.80
2019-05-05T04:05:26.536Z,99.70
2019-05-05T04:07:56.215Z,99.50
2019-05-05T04:10:26.872Z,99.40
2019-05-05T04:12:57.552Z,99.20
2019-05-05T04:15:27.404Z,99.30
2019-05-05T04:17:58.749Z,99.30
2019-05-05T04:20:29.928Z,99.50
2019-05-05T04:22:59.709Z,99.50
2019-05-05T04:25:29.451Z,99.40
2019-05-05T04:27:59.211Z,99.30
2019-05-05T04:30:28.995Z,99.40
2019-05-05T04:32:58.593Z,99.40
2019-05-05T04:35:28.356Z,99.40
2019-05-05T04:37:58.077Z,99.20
2019-05-05T04:40:47.057Z,99.30
2019-05-05T04:43:16.909Z,99.30
2019-05-05T04:45:46.598Z,99.20
2019-05-05T04:48:17.931Z,99.00
2019-05-05T04:50:49.279Z,99.00
2019-05-05T04:53:20.586Z,99.00
2019-05-05T04:55:50.296Z,99.00
2019-05-05T04:58:20.051Z,99.00
2019-05-05T05:00:49.767Z,99.00
2019-05-05T05:03:34.650Z,99.00
2019-05-05T05:06:08.966Z,99.00
2019-05-05T05:08:38.648Z,99.00
2019-05-05T05:11:08.390Z,99.00
2019-05-05T05:13:38.051Z,99.00
2019-05-05T05:16:07.942Z,98.80
2019-05-05T05:18:37.720Z,98.80
2019-05-05T05:21:10.024Z,98.80
2019-05-05T05:23:39.820Z,98.70
2019-05-05T05:26:09.690Z,98.80
2019-05-05T05:28:39.471Z,98.70
2019-05-05T05:31:09.244Z,98.80
2019-05-05T05:33:39.018Z,98.70
2019-05-05T05:36:08.939Z,98.70
2019-05-05T05:38:38.743Z,98.50
2019-05-05T05:41:10.061Z,98.60
2019-05-05T05:43:41.408Z,98.80
2019-05-05T05:46:13.610Z,98.70
2019-05-05T05:48:45.113Z,98.70
2019-05-05T05:51:19.341Z,98.60
2019-05-05T05:53:49.501Z,98.70
2019-05-05T05:56:19.313Z,98.70
2019-05-05T05:58:49.490Z,98.70
2019-05-05T06:01:19.241Z,98.70
2019-05-05T06:03:49.012Z,98.80
2019-05-05T06:06:18.798Z,99.00
2019-05-05T06:08:48.537Z,99.10
2019-05-05T06:11:18.321Z,99.30
2019-05-05T06:13:48.074Z,99.40
2019-05-05T06:16:17.712Z,99.40
2019-05-05T06:18:47.419Z,99.30
2019-05-05T06:21:17.335Z,99.40
2019-05-05T06:23:47.030Z,99.40
2019-05-05T06:26:16.783Z,99.50
2019-05-05T06:28:46.560Z,99.50
2019-05-05T06:31:16.300Z,99.50
2019-05-05T06:33:46.052Z,99.50
2019-05-05T06:36:15.808Z,99.50
2019-05-05T06:38:45.548Z,99.40
2019-05-05T06:41:16.832Z,99.20
2019-05-05T06:43:48.157Z,99.20
2019-05-05T06:46:25.442Z,99.20
2019-05-05T06:48:55.214Z,99.10
2019-05-05T06:51:29.572Z,99.10
2019-05-05T06:53:59.233Z,99.00
2019-05-05T06:56:29.172Z,99.00
2019-05-05T06:58:58.873Z,98.90
2019-05-05T07:01:28.592Z,98.70
2019-05-05T07:03:58.216Z,98.40
2019-05-05T07:06:27.978Z,98.20
2019-05-05T07:08:58.161Z,98.20
2019-05-05T07:11:27.913Z,98.20
2019-05-05T07:13:57.610Z,98.40
2019-05-05T07:16:27.359Z,98.50
2019-05-05T07:18:57.153Z,98.50
2019-05-05T07:21:27.912Z,98.60
2019-05-05T07:23:57.657Z,98.50
2019-05-05T07:26:27.421Z,98.40
2019-05-05T07:28:57.181Z,98.60
2019-05-05T07:31:26.934Z,98.20
2019-05-05T07:33:56.702Z,98.30
2019-05-05T07:36:46.974Z,98.30
2019-05-05T07:39:16.843Z,98.50
2019-05-05T07:41:46.675Z,98.80
2019-05-05T07:44:25.706Z,98.60
2019-05-05T07:46:47.806Z,98.60
2019-05-05T07:49:18.150Z,98.40
2019-05-05T07:51:47.961Z,98.50
2019-05-05T07:54:17.723Z,98.30
2019-05-05T07:56:47.495Z,98.30
2019-05-05T07:59:17.242Z,98.50
2019-05-05T08:01:47.101Z,98.30
2019-05-05T08:04:16.853Z,98.10
2019-05-05T08:06:47.103Z,98.20
2019-05-05T08:09:16.820Z,98.00
2019-05-05T08:11:46.526Z,97.90
2019-05-05T08:14:16.229Z,97.90
2019-05-05T08:16:50.450Z,98.00
2019-05-05T08:19:24.764Z,97.90
2019-05-05T08:21:54.544Z,98.20
2019-05-05T08:24:28.931Z,97.40
2019-05-05T08:27:15.714Z,97.40
2019-05-05T08:29:47.199Z,97.20
2019-05-05T08:32:23.790Z,96.90
2019-05-05T08:34:59.899Z,96.80
2019-05-05T08:37:25.088Z,96.50
2019-05-05T08:39:54.917Z,96.30
2019-05-05T08:42:24.835Z,96.70
2019-05-05T08:44:54.591Z,96.50
2019-05-05T08:47:24.910Z,96.80
2019-05-05T08:49:55.656Z,96.00
2019-05-05T08:52:25.593Z,94.90
2019-05-05T08:54:55.349Z,95.00
2019-05-05T08:57:25.108Z,95.40
2019-05-05T08:59:54.871Z,95.30
2019-05-05T09:02:24.647Z,95.70
2019-05-05T09:04:54.409Z,95.40
2019-05-05T09:07:24.414Z,95.60
2019-05-05T09:09:54.662Z,95.50
2019-05-05T09:12:24.501Z,95.60
2019-05-05T09:14:54.300Z,95.00
2019-05-05T09:17:24.447Z,94.70
2019-05-05T09:19:55.448Z,94.40
2019-05-05T09:22:25.204Z,94.90
2019-05-05T09:25:13.661Z,94.70
2019-05-05T09:27:53.505Z,95.30
2019-05-05T09:30:34.426Z,95.20
2019-05-05T09:33:04.169Z,95.00
2019-05-05T09:35:34.276Z,95.30
2019-05-05T09:38:04.401Z,95.30
2019-05-05T09:40:38.048Z,94.90
2019-05-05T09:43:08.735Z,95.40
2019-05-05T09:45:39.925Z,94.30
2019-05-05T09:48:09.794Z,94.30
2019-05-05T09:50:39.565Z,94.10
2019-05-05T09:53:09.274Z,94.20
2019-05-05T09:55:39.032Z,94.40
2019-05-05T09:58:08.734Z,94.30
2019-05-05T10:00:40.083Z,93.80
2019-05-05T10:03:09.841Z,93.40
2019-05-05T10:05:39.608Z,92.60
2019-05-05T10:08:09.582Z,91.90
2019-05-05T10:10:39.358Z,92.50
2019-05-05T10:13:09.055Z,92.80
2019-05-05T10:15:40.308Z,93.20
2019-05-05T10:18:11.107Z,92.40
2019-05-05T10:20:40.819Z,92.10
2019-05-05T10:23:10.622Z,91.60
2019-05-05T10:25:44.660Z,91.80
2019-05-05T10:28:14.496Z,90.90
2019-05-05T10:30:44.252Z,91.10
2019-05-05T10:33:14.375Z,90.80
2019-05-05T10:35:44.172Z,90.60
2019-05-05T10:38:14.961Z,91.40
2019-05-05T10:40:45.158Z,91.10
2019-05-05T10:43:16.198Z,91.30
2019-05-05T10:45:45.855Z,90.90
2019-05-05T10:48:15.644Z,90.90
2019-05-05T10:50:46.363Z,90.70
2019-05-05T10:53:16.110Z,89.70
2019-05-05T10:55:45.902Z,90.20
2019-05-05T10:58:15.829Z,90.30
2019-05-05T11:00:48.892Z,90.40
2019-05-05T11:03:18.596Z,89.60
2019-05-05T11:05:48.454Z,89.50
2019-05-05T11:08:18.699Z,89.50
2019-05-05T11:10:48.452Z,90.30
2019-05-05T11:13:18.174Z,89.90
2019-05-05T11:15:48.021Z,89.90
2019-05-05T11:18:17.787Z,90.30
2019-05-05T11:20:47.473Z,90.50
2019-05-05T11:23:17.323Z,90.50
2019-05-05T11:25:47.093Z,90.10
2019-05-05T11:28:16.887Z,89.60
2019-05-05T11:30:47.652Z,90.10
2019-05-05T11:33:25.151Z,89.70
2019-05-05T11:36:14.628Z,90.30
2019-05-05T11:38:44.720Z,89.10
2019-05-05T11:41:14.652Z,89.40
2019-05-05T11:43:44.506Z,90.00
2019-05-05T11:46:14.336Z,90.00
2019-05-05T11:48:44.151Z,88.60
2019-05-05T11:51:15.123Z,88.40
2019-05-05T11:53:45.096Z,88.80
2019-05-05T11:56:14.848Z,89.10
2019-05-05T11:58:44.569Z,89.70
2019-05-05T12:01:14.260Z,89.00
2019-05-05T12:03:44.515Z,88.20
2019-05-05T12:06:14.877Z,89.50
2019-05-05T12:08:45.867Z,90.10
2019-05-05T12:11:15.760Z,90.40
2019-05-05T12:13:45.557Z,90.80
2019-05-05T12:16:17.205Z,90.60
2019-05-05T12:18:47.099Z,90.10
2019-05-05T12:21:16.839Z,88.40
2019-05-05T12:23:46.558Z,88.80
2019-05-05T12:26:20.679Z,90.20
2019-05-05T12:28:54.825Z,90.10
2019-05-05T12:31:26.190Z,89.90
2019-05-05T12:33:56.152Z,89.10
2019-05-05T12:36:25.840Z,89.40
2019-05-05T12:38:55.576Z,90.20
2019-05-05T12:41:25.336Z,90.70
2019-05-05T12:43:55.181Z,90.80
2019-05-05T12:46:33.696Z,90.80
2019-05-05T12:49:05.889Z,91.10
2019-05-05T12:51:35.618Z,90.60
2019-05-05T12:54:05.457Z,90.60
2019-05-05T12:56:35.244Z,90.90
2019-05-05T12:59:06.614Z,91.10
2019-05-05T13:01:40.996Z,90.90
2019-05-05T13:04:11.239Z,90.90
2019-05-05T13:06:41.450Z,90.80
2019-05-05T13:09:11.397Z,90.60
2019-05-05T13:11:41.172Z,90.30
2019-05-05T13:14:14.290Z,89.80
2019-05-05T13:16:52.412Z,89.70
2019-05-05T13:19:25.805Z,90.50
2019-05-05T13:24:45.240Z,90.00
2019-05-05T13:27:24.854Z,90.00
2019-05-05T13:29:54.306Z,90.20
2019-05-05T13:32:24.745Z,90.10
2019-05-05T13:34:54.710Z,90.30
2019-05-05T13:37:24.568Z,89.20
2019-05-05T13:39:54.383Z,90.30
2019-05-05T13:42:24.478Z,90.60
2019-05-05T13:44:56.999Z,90.50
2019-05-05T13:47:26.758Z,90.00
2019-05-05T13:50:14.380Z,89.50
2019-05-05T13:52:45.268Z,90.00
2019-05-05T13:55:15.367Z,88.50
2019-05-05T13:57:46.299Z,89.20
2019-05-05T14:00:18.066Z,89.70
2019-05-05T14:02:48.995Z,89.90
2019-05-05T14:05:18.774Z,88.60
2019-05-05T14:07:50.387Z,87.90
2019-05-05T14:10:23.442Z,86.80
2019-05-05T14:12:52.655Z,88.10
2019-05-05T14:15:23.458Z,88.70
2019-05-05T14:17:54.398Z,89.60
2019-05-05T14:20:24.442Z,90.00
2019-05-05T14:22:54.374Z,89.50
2019-05-05T14:25:31.555Z,89.10
2019-05-05T14:28:03.506Z,89.40
2019-05-05T14:30:37.640Z,88.70
2019-05-05T14:33:08.986Z,88.80
2019-05-05T14:35:58.144Z,89.50
2019-05-05T14:38:29.541Z,90.20
2019-05-05T14:40:59.292Z,90.60
2019-05-05T14:43:29.131Z,89.90
2019-05-05T14:45:58.890Z,90.50
2019-05-05T14:48:28.652Z,90.40
2019-05-05T14:50:58.369Z,90.60
2019-05-05T14:53:28.152Z,90.80
2019-05-05T14:55:58.024Z,91.10
2019-05-05T14:58:27.766Z,91.00
2019-05-05T15:00:58.217Z,91.60
2019-05-05T15:03:28.122Z,91.60
2019-05-05T15:05:59.456Z,92.00
2019-05-05T15:08:43.912Z,91.80
2019-05-05T15:11:15.396Z,91.60
2019-05-05T15:13:45.966Z,91.90
2019-05-05T15:16:15.716Z,92.20
2019-05-05T15:18:45.428Z,92.00
2019-05-05T15:21:16.334Z,91.90
2019-05-05T15:23:46.077Z,92.10
2019-05-05T15:26:15.852Z,92.10
2019-05-05T15:28:58.630Z,91.90
2019-05-05T15:31:17.985Z,92.30
2019-05-05T15:33:47.713Z,92.40
2019-05-05T15:36:17.485Z,92.70
2019-05-05T15:38:47.235Z,93.00
2019-05-05T15:41:16.945Z,93.10
2019-05-05T15:43:46.648Z,93.00
2019-05-05T15:46:16.429Z,93.10
2019-05-05T15:48:46.192Z,93.60
2019-05-05T15:51:15.864Z,94.50
2019-05-05T15:53:45.639Z,95.00
2019-05-05T15:56:15.413Z,95.80
2019-05-05T15:58:45.196Z,96.10
2019-05-05T16:01:14.970Z,97.10
2019-05-05T16:03:44.881Z,98.90
2019-05-05T16:06:14.651Z,99.90
2019-05-05T16:08:44.611Z,99.90
2019-05-05T16:11:14.411Z,99.90
2019-05-05T16:13:45.786Z,99.90
2019-05-05T16:16:35.200Z,99.90
2019-05-05T16:19:08.614Z,99.90
2019-05-05T16:21:49.258Z,99.90
2019-05-05T16:24:20.632Z,99.90
2019-05-05T16:26:50.398Z,99.90
2019-05-05T16:29:20.767Z,99.90
2019-05-05T16:31:50.523Z,99.90
2019-05-05T16:34:20.307Z,99.90
2019-05-05T16:36:50.997Z,99.90
2019-05-05T16:39:22.184Z,99.90
2019-05-05T16:41:53.731Z,99.90
2019-05-05T16:44:23.470Z,99.90
2019-05-05T16:46:53.986Z,99.90
2019-05-05T16:49:24.030Z,99.90
2019-05-05T16:51:55.358Z,99.90
2019-05-05T16:54:29.904Z,99.90
2019-05-05T16:56:59.571Z,99.90
2019-05-05T16:59:29.323Z,99.90
2019-05-05T17:01:59.090Z,99.90
2019-05-05T17:04:28.931Z,99.90
2019-05-05T17:06:58.682Z,99.90
2019-05-05T17:12:20.033Z,99.90
2019-05-05T17:14:57.604Z,99.90
2019-05-05T17:17:28.951Z,99.90
2019-05-05T17:20:04.581Z,99.20
2019-05-05T17:22:36.071Z,98.80
2019-05-05T17:25:08.774Z,98.40
2019-05-05T17:27:47.653Z,98.10
2019-05-05T17:30:10.498Z,97.30
2019-05-05T17:32:40.352Z,97.50
2019-05-05T17:35:10.347Z,97.40
2019-05-05T17:37:40.122Z,96.90
2019-05-05T17:40:30.481Z,96.80
2019-05-05T17:43:04.780Z,96.80
2019-05-05T17:45:54.951Z,97.20
2019-05-05T17:48:25.628Z,97.70
2019-05-05T17:51:13.896Z,98.00
2019-05-05T17:53:57.351Z,98.50
2019-05-05T17:56:37.591Z,99.00
2019-05-05T17:59:07.414Z,99.30
2019-05-05T18:01:37.088Z,99.30
2019-05-05T18:04:06.860Z,99.40
2019-05-05T18:06:41.301Z,99.50
2019-05-05T18:09:18.590Z,99.50
2019-05-05T18:12:06.183Z,99.20
2019-05-05T18:14:40.520Z,99.10
2019-05-05T18:17:10.288Z,98.90
2019-05-05T18:19:40.068Z,98.90
2019-05-05T18:22:09.897Z,99.10
2019-05-05T18:24:39.645Z,99.30
2019-05-05T18:27:09.411Z,99.60
2019-05-05T18:29:39.150Z,99.70
2019-05-05T18:32:08.998Z,99.90
2019-05-05T18:34:38.598Z,99.90
2019-05-05T18:37:08.404Z,99.90
2019-05-05T18:39:38.181Z,99.90
2019-05-05T18:42:13.973Z,99.90
2019-05-05T18:44:46.574Z,99.90
2019-05-05T18:47:18.609Z,99.90
2019-05-05T18:49:48.714Z,99.70
2019-05-05T18:52:19.387Z,99.50
2019-05-05T18:54:49.172Z,99.70
2019-05-05T18:57:30.566Z,99.60
2019-05-05T19:00:00.364Z,99.80
2019-05-05T19:02:44.300Z,99.80
2019-05-05T19:05:16.485Z,99.90
2019-05-05T19:07:55.413Z,99.90
2019-05-05T19:10:19.199Z,99.90
2019-05-05T19:12:50.791Z,99.90
2019-05-05T19:15:20.329Z,99.90
2019-05-05T19:17:50.072Z,99.90
2019-05-05T19:20:36.485Z,99.90
2019-05-05T19:23:06.241Z,99.90
2019-05-05T19:25:36.031Z,99.90
2019-05-05T19:28:05.866Z,99.90
2019-05-05T19:30:36.090Z,99.90
2019-05-05T19:33:09.092Z,99.90
2019-05-05T19:35:45.255Z,99.90
2019-05-05T19:38:15.788Z,99.90
2019-05-05T19:40:45.773Z,99.90
2019-05-05T19:43:15.686Z,99.90
2019-05-05T19:45:45.873Z,99.90
2019-05-05T19:48:15.624Z,99.90
2019-05-05T19:50:49.724Z,99.90
2019-05-05T19:53:24.548Z,99.90
2019-05-05T19:56:03.939Z,99.90
2019-05-05T19:58:34.056Z,99.90
2019-05-05T20:01:05.289Z,99.90
2019-05-05T20:03:35.521Z,99.90
2019-05-05T20:06:06.567Z,99.90
2019-05-05T20:08:40.781Z,99.90
2019-05-05T20:11:09.255Z,99.90
2019-05-05T20:13:38.947Z,99.90
2019-05-05T20:16:10.303Z,99.90
2019-05-05T20:18:40.080Z,99.90
2019-05-05T20:21:09.863Z,99.90
2019-05-05T20:23:39.547Z,99.90
2019-05-05T20:26:09.329Z,99.90
2019-05-05T20:28:39.066Z,99.90
2019-05-05T20:31:08.832Z,99.90
2019-05-05T20:33:49.001Z,99.90
2019-05-05T20:36:23.803Z,99.90
2019-05-05T20:38:55.314Z,99.90
2019-05-05T20:41:25.137Z,99.90
2019-05-05T20:43:54.856Z,99.90
2019-05-05T20:46:24.643Z,99.90
2019-05-05T20:48:54.654Z,99.90
2019-05-05T20:51:24.483Z,99.90
2019-05-05T20:53:54.486Z,99.90
2019-05-05T20:56:24.563Z,99.90
2019-05-05T20:58:54.912Z,99.90
2019-05-05T21:01:24.974Z,99.90
2019-05-05T21:03:54.694Z,99.90
2019-05-05T21:06:24.703Z,99.90
2019-05-05T21:08:55.182Z,99.90
2019-05-05T21:11:26.546Z,99.90
2019-05-05T21:13:56.274Z,99.90
2019-05-05T21:16:26.009Z,99.90
2019-05-05T21:18:55.774Z,99.90
2019-05-05T21:21:27.105Z,99.90
2019-05-05T21:24:01.663Z,99.90
2019-05-05T21:26:48.094Z,99.90
2019-05-05T21:29:19.408Z,99.90
2019-05-05T21:31:49.297Z,99.90
2019-05-05T21:34:19.001Z,99.90
2019-05-05T21:36:48.751Z,99.90
2019-05-05T21:39:18.558Z,99.90
2019-05-05T21:41:48.228Z,99.90
2019-05-05T21:44:18.001Z,99.90
2019-05-05T21:46:47.774Z,99.90
2019-05-05T21:49:17.915Z,99.90
2019-05-05T21:51:53.857Z,99.90
2019-05-05T21:54:43.769Z,99.90
2019-05-05T21:57:17.560Z,99.90
2019-05-05T21:59:55.472Z,99.90
2019-05-05T22:02:20.968Z,99.90
2019-05-05T22:04:54.187Z,99.90
2019-05-05T22:07:24.103Z,99.90
2019-05-05T22:09:54.440Z,99.90
2019-05-05T22:12:24.513Z,99.90
2019-05-05T22:14:55.158Z,99.90
2019-05-05T22:17:25.194Z,99.90
2019-05-05T22:20:11.604Z,99.90
2019-05-05T22:22:44.963Z,99.90
2019-05-05T22:25:14.333Z,99.90
2019-05-05T22:27:44.209Z,99.90
2019-05-05T22:30:14.340Z,99.90
2019-05-05T22:32:44.270Z,99.90
2019-05-05T22:35:16.287Z,99.90
2019-05-05T22:37:45.700Z,99.90
2019-05-05T22:40:24.502Z,99.90
2019-05-05T22:42:54.749Z,99.90
2019-05-05T22:45:24.719Z,99.90
2019-05-05T22:47:54.616Z,99.90
2019-05-05T22:50:24.808Z,99.90
2019-05-05T22:52:54.757Z,99.90
2019-05-05T22:55:24.815Z,99.90
2019-05-05T22:57:54.698Z,99.90
2019-05-05T23:00:29.217Z,99.90
2019-05-05T23:03:13.571Z,99.90
2019-05-05T23:05:59.868Z,99.90
2019-05-05T23:08:29.792Z,99.90
2019-05-05T23:10:59.452Z,99.90
2019-05-05T23:13:29.223Z,99.90
2019-05-05T23:16:01.371Z,99.90
2019-05-05T23:18:31.138Z,99.90
2019-05-05T23:21:02.489Z,99.90
2019-05-05T23:23:36.809Z,99.90
2019-05-05T23:26:08.169Z,99.90
2019-05-05T23:28:37.883Z,99.90
2019-05-05T23:31:07.641Z,99.90
2019-05-05T23:33:37.816Z,99.90
2019-05-05T23:36:08.594Z,99.90
2019-05-05T23:38:38.287Z,99.90
2019-05-05T23:41:09.613Z,99.90
2019-05-05T23:43:39.399Z,99.90
2019-05-05T23:46:09.497Z,99.90
2019-05-05T23:48:40.211Z,99.90
2019-05-05T23:51:10.313Z,99.90
2019-05-05T23:53:40.057Z,99.90
2019-05-05T23:56:13.486Z,99.90
2019-05-05T23:58:44.081Z,99.90
